Ana Sayfa
METAR-TAF:

METAR-TAF

Havaalanları :

Pocono Mountains Municipal Airport

Mount Pocono, Pensilvanya, Amerika Birleşik Devletleri

Enlem: 41-08-20N, Boylam: 075-23-46W, yükseklik: 584 m

Güncel hava durumu gözlemi

Rapor saat 06:53 UTC de 1 saat ve 13 dakika önce yapıldı.
Rüzgar kuzeybatıdan 5 kt
Sıcaklık 14°C
Nem 100%
Basınç 1015 hPa
Görüş mesafesi: 16.1 km
Açık gökyüzü

METAR: KMPO 240653Z AUTO 31005KT 10SM CLR 14/14 A2996 RMK AO2 SLP137 T01440144

Saat: 04:06 (08:06 UTC)


TAF: eksik

4.000'den fazla havaalanı için hava durumu gözlemleri ve tahminleri (METAR ve TAF raporları).

Kullanılabilir istasyonlar harita üzerinde sarı ve kırmızı noktalarla gösterilir.

İstasyonun adını görmek için fareyi noktanın üzerinde gezdirin.

Sonrasında hava gözlem ve tahminlerini görmek için tıklayın.

Haritayı değiştirmek için: yaklaştırmak için siyah artı işaretli yeşil düğmeye ve uzaklaştırmak için de eksi işaretli düğmeye hızla tıklayın; bitişik haritalar için yeşil okları kullanın.


METAR-TAF: